WEATHER DATA

YESTERDAY
Time Temp. Dewp. Hum. Wind dir Wind speed Wind gust Bar. 1h Prec. 24h Prec.
00:00 14.8 9.6 71 7 0.8 1.4 1027.3 0.0000 0.0000
00:21 14.7 9.7 72 345 0.8 1.4 1027.4 0.0000 0.0000
00:31 14.7 9.7 72 30 0.8 1.4 1027.4 0.0000 0.0000
00:40 14.7 9.7 72 3 0.8 1.4 1027.2 0.0000 0.0000
00:50 14.7 9.7 72 26 0.8 1.9 1027.4 0.0000 0.0000
01:11 14.6 9.6 72 25 0.8 1.9 1027.3 0.0000 0.0000
01:21 14.6 9.6 72 29 0.8 1.4 1027.4 0.0000 0.0000
01:31 14.6 9.6 72 10 0.8 1.4 1027.4 0.0000 0.0000
01:51 14.5 9.5 72 32 0.8 1.4 1027.5 0.0000 0.0000
02:01 14.5 9.5 72 18 0.8 1.4 1027.4 0.0000 0.0000
02:12 14.5 9.5 72 23 0.8 1.4 1027.5 0.0000 0.0000
02:21 14.5 9.5 72 30 0.8 1.4 1027.5 0.0000 0.0000
02:31 14.5 9.5 72 32 0.8 1.4 1027.5 0.0000 0.0000
02:42 14.5 9.5 72 0 0.8 1.1 1027.3 0.0000 0.0000
02:52 14.5 9.7 73 334 0.8 1.9 1027.3 0.0000 0.0000
03:01 14.4 9.6 73 21 0.8 1.9 1027.4 0.0000 0.0000
03:11 14.4 9.6 73 45 0.8 1.4 1027.4 0.0000 0.0000
03:22 14.4 9.6 73 15 0.8 1.4 1027.3 0.0000 0.0000
03:32 14.4 9.6 73 33 0.8 1.4 1027.4 0.0000 0.0000
03:42 14.4 9.6 73 29 0.8 1.4 1027.5 0.0000 0.0000
03:52 14.3 9.5 73 6 0.8 1.9 1027.4 0.0000 0.0000
04:02 14.3 9.5 73 22 0.8 1.9 1027.4 0.0000 0.0000
04:12 14.3 9.5 73 3 0.8 1.4 1027.3 0.0000 0.0000
04:22 14.3 9.5 73 8 0.8 1.9 1027.4 0.0000 0.0000
04:33 14.3 9.5 73 0 0.8 1.9 1027.4 0.0000 0.0000
04:42 14.3 9.5 73 14 0.8 1.4 1027.4 0.0000 0.0000
04:52 14.3 9.5 73 28 0.8 1.4 1027.6 0.0000 0.0000
05:03 14.3 9.5 73 345 0.8 1.4 1027.6 0.0000 0.0000
05:13 14.3 9.5 73 335 0.8 1.4 1027.6 0.0000 0.0000
05:22 14.3 9.5 73 29 0.8 1.4 1027.6 0.0000 0.0000
05:32 14.3 9.5 73 14 0.8 1.4 1027.7 0.0000 0.0000
05:43 14.2 9.4 73 7 0.8 1.4 1027.8 0.0000 0.0000
05:53 14.2 9.4 73 347 0.8 1.4 1027.7 0.0000 0.0000
06:03 14.2 9.4 73 40 0.8 1.4 1027.8 0.0000 0.0000
06:13 14.2 9.4 73 7 0.8 1.9 1027.8 0.0000 0.0000
06:23 14.2 9.4 73 18 0.8 1.4 1027.9 0.0000 0.0000
06:33 14.2 9.4 73 345 0.8 1.9 1027.9 0.0000 0.0000
06:43 14.2 9.4 73 0 0.8 1.4 1027.9 0.0000 0.0000
06:54 14.3 9.5 73 8 0.8 1.4 1028.1 0.0000 0.0000
07:03 14.3 9.5 73 12 0.8 1.4 1028.1 0.0000 0.0000
07:13 14.4 9.6 73 0 0.8 1.9 1028.1 0.0000 0.0000
07:24 14.5 9.5 72 30 0.8 1.9 1028.2 0.0000 0.0000
07:34 14.5 9.5 72 18 0.8 1.9 1028.2 0.0000 0.0000
07:44 14.6 9.6 72 333 0.8 2.2 1028.4 0.0000 0.0000
07:53 14.6 9.6 72 7 0.8 1.9 1028.4 0.0000 0.0000
08:04 14.7 9.7 72 348 0.8 1.9 1028.6 0.0000 0.0000
08:14 14.7 9.7 72 356 0.8 1.9 1028.5 0.0000 0.0000
08:24 14.8 9.8 72 327 0.8 1.9 1028.8 0.0000 0.0000
08:44 14.9 9.9 72 315 0.8 2.2 1028.8 0.0000 0.0000
08:54 14.9 9.7 71 344 1.1 2.2 1028.7 0.0000 0.0000
09:04 15 9.8 71 315 0.8 2.5 1028.9 0.0000 0.0000
09:15 15.1 9.9 71 345 1.1 2.5 1028.8 0.0000 0.0000
09:24 15.2 10 71 340 1.1 2.2 1028.9 0.0000 0.0000
09:34 15.4 10.2 71 341 1.1 2.2 1028.9 0.0000 0.0000
09:44 15.5 10.3 71 345 1.1 2.5 1029 0.0000 0.0000
09:55 15.6 10.2 70 345 0.8 1.9 1029.1 0.0000 0.0000
10:14 15.9 10.2 69 341 0.8 1.9 1029.2 0.0000 0.0000
10:40 16.3 10.4 68 330 1.1 3.1 1029.1 0.0000 0.0000
10:50 16.4 10.5 68 337 0.8 1.9 1029.3 0.0000 0.0000
11:00 16.7 10.8 68 45 1.1 3.6 1029.2 0.0000 0.0000
11:10 17 10.8 67 36 1.1 3.1 1029.3 0.0000 0.0000
11:20 17.2 10.8 66 24 1.1 3.1 1029.2 0.0000 0.0000
11:40 17.5 11.1 66 48 0.8 1.9 1029.1 0.0000 0.0000
11:50 17.9 11.2 65 56 1.1 2.2 1029.2 0.0000 0.0000
12:00 18.2 11.3 64 8 1.1 2.2 1029.2 0.0000 0.0000
12:21 18.4 11.2 63 41 1.1 1.9 1029.1 0.0000 0.0000
12:30 18.4 11.2 63 58 1.1 2.5 1029.1 0.0000 0.0000
12:40 18.4 11 62 30 1.1 2.2 1029 0.0000 0.0000
12:51 18.4 10.8 61 5 1.1 3.3 1029.1 0.0000 0.0000
13:01 18.4 11 62 51 0.8 2.2 1029.1 0.0000 0.0000
13:10 18.4 11 62 30 1.1 1.9 1029.2 0.0000 0.0000
13:21 18.3 10.7 61 12 1.1 1.9 1029.3 0.0000 0.0000
13:31 18.3 10.7 61 334 1.1 3.6 1029.3 0.0000 0.0000
13:41 18.3 10.9 62 34 1.1 1.9 1029.1 0.0000 0.0000
13:51 18.4 10.8 61 23 1.1 2.5 1029.2 0.0000 0.0000
14:01 18.4 10.8 61 355 0.8 2.2 1029.1 0.0000 0.0000
14:11 18.4 10.8 61 56 0.8 2.2 1029.2 0.0000 0.0000
14:21 18.5 10.8 61 59 0.8 1.4 1029.2 0.0000 0.0000
14:32 18.5 10.8 61 20 1.1 2.2 1029.3 0.0000 0.0000
14:41 18.7 11 61 45 1.1 1.9 1029.2 0.0000 0.0000
14:51 18.9 11.2 61 45 1.1 2.5 1029.1 0.0000 0.0000
15:01 19.1 11.2 60 351 1.1 2.5 1029 0.0000 0.0000
15:12 19.2 11.3 60 15 0.8 2.2 1029 0.0000 0.0000
15:22 19.3 11.4 60 30 0.8 2.2 1029 0.0000 0.0000
15:31 19.5 11.3 59 49 0.8 2.2 1029 0.0000 0.0000
15:42 19.4 11.2 59 45 0.8 2.2 1028.8 0.0000 0.0000
15:52 19.5 11 58 341 1.1 2.5 1028.8 0.0000 0.0000
16:02 19.6 11.1 58 344 0.8 1.9 1028.7 0.0000 0.0000
16:11 19.8 11.3 58 59 0.8 1.9 1028.7 0.0000 0.0000
16:22 19.8 10.8 56 45 1.1 3.3 1028.6 0.0000 0.0000
16:32 19.9 10.9 56 39 0.8 1.9 1028.4 0.0000 0.0000
16:42 20.1 11.1 56 52 0.8 2.2 1028.4 0.0000 0.0000
16:52 20.3 11.2 56 64 1.1 1.9 1028.4 0.0000 0.0000
17:02 20.4 11.1 55 59 0.8 2.2 1028.5 0.0000 0.0000
17:12 20.6 11.3 55 45 0.8 2.2 1028.4 0.0000 0.0000
17:22 20.6 10.4 52 70 1.1 2.5 1028.5 0.0000 0.0000
17:33 20.3 10.4 53 48 0.8 2.2 1028.4 0.0000 0.0000
17:42 20.2 10.3 53 55 1.1 2.5 1028.5 0.0000 0.0000
17:52 20.1 10.5 54 50 0.8 1.9 1028.4 0.0000 0.0000
18:03 20 10.4 54 59 1.1 2.5 1028.5 0.0000 0.0000
18:13 19.9 10.6 55 57 1.1 1.9 1028.4 0.0000 0.0000
18:23 20 10.7 55 14 0.8 1.9 1028.5 0.0000 0.0000
18:32 20 10.1 53 55 1.1 3.6 1028.6 0.0000 0.0000
18:43 20 10.1 53 37 1.1 2.2 1028.5 0.0000 0.0000
19:03 20.2 10.3 53 30 1.1 2.2 1028.6 0.0000 0.0000
19:23 20 10.1 53 49 1.1 2.2 1028.7 0.0000 0.0000
19:43 19.9 10 53 27 1.1 2.5 1028.7 0.0000 0.0000
19:54 19.8 10.2 54 62 1.1 2.5 1028.7 0.0000 0.0000
20:03 19.8 10.2 54 45 0.8 1.9 1028.7 0.0000 0.0000
20:13 19.7 10.1 54 59 1.1 3.1 1028.8 0.0000 0.0000
20:24 19.5 9.7 53 63 1.1 2.5 1028.8 0.0000 0.0000
20:34 19.4 9.9 54 63 1.1 2.5 1028.9 0.0000 0.0000
20:44 19.3 10 55 63 1.4 3.3 1029 0.0000 0.0000
20:53 19.1 9.9 55 60 1.1 2.2 1029.2 0.0000 0.0000
21:04 19 10 56 66 0.8 2.2 1029.3 0.0000 0.0000
21:14 18.8 9.8 56 66 0.8 2.2 1029.3 0.0000 0.0000
21:24 18.6 9.7 56 63 0.8 1.9 1029.5 0.0000 0.0000
21:34 18.5 9.6 56 55 0.8 1.9 1029.6 0.0000 0.0000
21:44 18.4 9.5 56 63 0.8 1.4 1029.6 0.0000 0.0000
21:54 18.2 9.3 56 65 0.8 1.9 1029.6 0.0000 0.0000
22:04 18.1 9.5 57 51 0.8 1.9 1029.7 0.0000 0.0000
22:15 18 9.4 57 34 0.8 1.1 1029.8 0.0000 0.0000
22:24 17.9 9.3 57 40 0.8 1.4 1029.8 0.0000 0.0000
22:34 17.7 9.3 58 66 0.8 1.4 1029.9 0.0000 0.0000
22:44 17.5 9.2 58 61 0.8 1.4 1029.8 0.0000 0.0000
22:55 17.4 9.1 58 59 0.8 1.9 1029.7 0.0000 0.0000
23:04 17.3 9.2 59 51 0.8 1.4 1029.8 0.0000 0.0000
23:14 17.2 9.1 59 40 0.8 1.1 1029.8 0.0000 0.0000
23:28 17 9.2 60 57 0.8 1.4 1029.8 0.0000
23:38 16.9 9.1 60 51 0.8 1.1 1029.9 0.0000
23:49 16.7 8.9 60 54 0.8 1.4 1029.9 0.0000
23:58 16.6 9.1 61 56 0.8 1.4 1029.8 0.0000

DAY STATISTIC

2020-05-25
TEMPERATURE
AVERAGE
16.9
HIGH
20.6
17:12
LOW
14.2
05:43
PRESSURE
AVERAGE
1028.6
HIGH
1029.9
22:34
LOW
1027.2
00:40
DEWPOINT
AVERAGE
10.1
HIGH
11.4
15:22
LOW
8.9
23:49
HUMIDITY
AVERAGE
64
HIGH
73
02:52
LOW
52
17:22
WIND SPEED
AVERAGE
0.9
HIGH
1.4
20:44
WIND GUST
AVERAGE
2.0
HIGH
3.6
11:00
WIND DIRECTION
PREVAILING
NE
57.6%
N
34.8
NE
57.6
E
0.8
SE
0.0
S
0.0
SW
0.0
W
0.0
NW
6.8
PRECIPITATION
RAIN HOUR
0.0
RAIN DAY
0.0
TEMPERATURE (°C)
LOW
14.2
HIGH
20.6
AVERAGE
16.9
PRESSURE (hpa)
LOW
1027.2
HIGH
1029.9
AVERAGE
1028.6
DEVICE